createdAt,value
2022-12-23T00:04:05.307Z,99454.54
2022-12-23T00:09:08.150Z,99454.60
2022-12-23T00:14:29.673Z,99450.77
2022-12-23T00:19:32.402Z,99450.98
2022-12-23T00:24:35.103Z,99448.61
2022-12-23T00:29:37.846Z,99449.23
2022-12-23T00:34:40.972Z,99455.30
2022-12-23T00:40:06.427Z,99466.32
2022-12-23T00:45:16.087Z,99466.38
2022-12-23T00:50:19.079Z,99472.41
2022-12-23T00:55:23.987Z,99470.94
2022-12-23T01:00:45.778Z,99471.98
2022-12-23T01:05:48.580Z,99473.33
2022-12-23T01:10:51.454Z,99470.95
2022-12-23T01:16:03.759Z,99476.73
2022-12-23T01:21:08.574Z,99480.17
2022-12-23T01:26:11.588Z,99481.39
2022-12-23T01:31:14.355Z,99487.20
2022-12-23T01:36:17.201Z,99490.36
2022-12-23T01:41:42.697Z,99494.14
2022-12-23T01:46:46.342Z,99491.83
2022-12-23T01:51:50.447Z,99489.69
2022-12-23T01:56:54.344Z,99489.86
2022-12-23T02:02:15.847Z,99485.42
2022-12-23T02:07:38.105Z,99489.53
2022-12-23T02:13:28.349Z,99489.55
2022-12-23T02:19:01.862Z,99500.54
2022-12-23T02:24:32.712Z,99509.35
2022-12-23T02:30:18.850Z,99508.95
2022-12-23T02:35:39.133Z,99507.41
2022-12-23T02:41:06.949Z,99511.30
2022-12-23T02:46:38.638Z,99519.89
2022-12-23T02:51:48.200Z,99521.52
2022-12-23T02:56:51.080Z,99527.23
2022-12-23T03:01:54.221Z,99533.33
2022-12-23T03:06:57.099Z,99535.75
2022-12-23T03:12:18.208Z,99542.54
2022-12-23T03:17:28.612Z,99543.61
2022-12-23T03:22:37.177Z,99541.55
2022-12-23T03:27:57.399Z,99538.53
2022-12-23T03:33:13.438Z,99539.39
2022-12-23T03:38:16.957Z,99545.65
2022-12-23T03:43:24.721Z,99541.75
2022-12-23T03:48:39.738Z,99544.26
2022-12-23T03:53:49.458Z,99549.36
2022-12-23T03:58:59.109Z,99544.31
2022-12-23T04:04:29.169Z,99544.84
2022-12-23T04:09:32.242Z,99550.48
2022-12-23T04:14:35.933Z,99547.01
2022-12-23T04:19:38.819Z,99544.80
2022-12-23T04:24:42.016Z,99552.40
2022-12-23T04:29:44.989Z,99555.86
2022-12-23T04:34:47.997Z,99557.76
2022-12-23T04:39:50.723Z,99559.38
2022-12-23T04:44:53.478Z,99563.46
2022-12-23T04:49:56.234Z,99559.64
2022-12-23T04:54:58.949Z,99559.20
2022-12-23T05:00:04.108Z,99560.05
2022-12-23T05:05:07.344Z,99563.45
2022-12-23T05:10:10.728Z,99567.02
2022-12-23T05:15:13.781Z,99572.59
2022-12-23T05:20:17.993Z,99572.91
2022-12-23T05:25:20.813Z,99575.88
2022-12-23T05:30:23.536Z,99577.27
2022-12-23T05:35:26.991Z,99582.71
2022-12-23T05:40:33.580Z,99594.97
2022-12-23T05:45:37.113Z,99598.98
2022-12-23T05:50:39.999Z,99602.02
2022-12-23T05:55:42.776Z,99609.49
2022-12-23T06:00:45.554Z,99611.06
2022-12-23T06:05:51.985Z,99623.30
2022-12-23T06:10:54.802Z,99624.64
2022-12-23T06:15:57.557Z,99628.63
2022-12-23T06:21:00.331Z,99632.05
2022-12-23T06:26:03.510Z,99634.60
2022-12-23T06:31:06.449Z,99642.18
2022-12-23T06:36:09.518Z,99645.55
2022-12-23T06:41:12.386Z,99645.88
2022-12-23T06:46:15.170Z,99649.72
2022-12-23T06:51:17.988Z,99655.46
2022-12-23T06:56:20.726Z,99663.32
2022-12-23T07:01:23.467Z,99667.89
2022-12-23T07:06:26.265Z,99666.50
2022-12-23T07:11:29.188Z,99673.02
2022-12-23T07:16:31.950Z,99675.42
2022-12-23T07:21:36.697Z,99671.69
2022-12-23T07:26:39.476Z,99674.64
2022-12-23T07:31:42.458Z,99681.57
2022-12-23T07:36:45.216Z,99687.28
2022-12-23T07:41:47.941Z,99687.30
2022-12-23T07:46:50.805Z,99684.48
2022-12-23T07:51:53.981Z,99677.86
2022-12-23T07:56:58.182Z,99679.75
2022-12-23T08:02:01.097Z,99667.98
2022-12-23T08:07:03.905Z,99662.47
2022-12-23T08:12:06.998Z,99679.63
2022-12-23T08:17:09.767Z,99689.20
2022-12-23T08:22:12.692Z,99683.89
2022-12-23T08:27:16.365Z,99684.80
2022-12-23T08:32:19.251Z,99680.13
2022-12-23T08:37:23.053Z,99684.84
2022-12-23T08:42:25.871Z,99682.98
2022-12-23T08:47:28.604Z,99678.67
2022-12-23T08:52:32.748Z,99672.99
2022-12-23T08:57:35.497Z,99669.44
2022-12-23T09:02:38.592Z,99661.34
2022-12-23T09:07:41.587Z,99660.37
2022-12-23T09:12:44.330Z,99654.42
2022-12-23T09:17:47.096Z,99651.08
2022-12-23T09:22:50.837Z,99644.00
2022-12-23T09:27:53.606Z,99642.09
2022-12-23T09:32:56.377Z,99632.02
2022-12-23T09:37:59.317Z,99614.89
2022-12-23T09:43:32.858Z,99607.70
2022-12-23T09:48:46.097Z,99603.55
2022-12-23T09:54:20.074Z,99598.21
2022-12-23T09:59:28.453Z,99592.57
2022-12-23T10:04:42.249Z,99584.33
2022-12-23T10:09:46.518Z,99579.90
2022-12-23T10:14:49.426Z,99578.14
2022-12-23T10:19:52.263Z,99581.41
2022-12-23T10:24:55.744Z,99582.16
2022-12-23T10:30:19.993Z,99574.27
2022-12-23T10:35:52.724Z,99573.52
2022-12-23T10:41:11.446Z,99572.42
2022-12-23T10:47:00.902Z,99559.21
2022-12-23T10:52:09.490Z,99546.42
2022-12-23T10:57:12.496Z,99546.18
2022-12-23T11:02:15.345Z,99549.85
2022-12-23T11:07:43.954Z,99545.81
2022-12-23T11:12:52.967Z,99546.11
2022-12-23T11:18:14.345Z,99539.67
2022-12-23T11:23:29.080Z,99532.26
2022-12-23T11:28:32.160Z,99521.55
2022-12-23T11:33:41.146Z,99513.05
2022-12-23T11:39:12.264Z,99502.05
2022-12-23T11:44:28.811Z,99492.88
2022-12-23T11:49:32.103Z,99489.09
2022-12-23T11:54:35.360Z,99495.42
2022-12-23T11:59:43.483Z,99489.46
2022-12-23T12:04:55.380Z,99479.64
2022-12-23T12:09:59.439Z,99480.45
2022-12-23T12:15:02.219Z,99473.59
2022-12-23T12:20:14.845Z,99476.89
2022-12-23T12:25:31.349Z,99469.32
2022-12-23T12:30:50.666Z,99467.81
2022-12-23T12:36:05.090Z,99463.94
2022-12-23T12:41:43.817Z,99462.06
2022-12-23T12:46:49.923Z,99460.24
2022-12-23T12:52:08.369Z,99461.80
2022-12-23T12:57:19.664Z,99459.73
2022-12-23T13:02:47.266Z,99460.41
2022-12-23T13:08:15.246Z,99454.89
2022-12-23T13:13:54.973Z,99454.43
2022-12-23T13:19:31.968Z,99452.27
2022-12-23T13:24:48.191Z,99457.60
2022-12-23T13:30:18.980Z,99457.98
2022-12-23T13:35:46.732Z,99460.72
2022-12-23T13:41:16.393Z,99455.77
2022-12-23T13:46:43.501Z,99455.96
2022-12-23T13:52:16.420Z,99454.92
2022-12-23T13:58:13.595Z,99456.71
2022-12-23T14:03:24.402Z,99456.82
2022-12-23T14:08:41.283Z,99455.39
2022-12-23T14:13:55.319Z,99449.14
2022-12-23T14:19:37.999Z,99445.83
2022-12-23T14:25:05.201Z,99438.53
2022-12-23T14:30:16.988Z,99441.20
2022-12-23T14:35:27.147Z,99439.86
2022-12-23T14:40:39.289Z,99444.67
2022-12-23T14:45:42.731Z,99449.68
2022-12-23T14:50:59.018Z,99457.80
2022-12-23T14:56:08.004Z,99461.66
2022-12-23T15:01:42.112Z,99459.42
2022-12-23T15:07:00.266Z,99455.46
2022-12-23T15:12:11.915Z,99459.30
2022-12-23T15:17:35.504Z,99462.27
2022-12-23T15:22:39.121Z,99467.14
2022-12-23T15:27:41.859Z,99468.27
2022-12-23T15:32:48.131Z,99473.73
2022-12-23T15:37:51.498Z,99469.50
2022-12-23T15:42:54.547Z,99467.33
2022-12-23T15:47:57.312Z,99463.57
2022-12-23T15:53:04.336Z,99461.38
2022-12-23T15:58:07.141Z,99461.14
2022-12-23T16:03:34.221Z,99459.85
2022-12-23T16:08:38.064Z,99460.69
2022-12-23T16:13:47.870Z,99458.77
2022-12-23T16:18:52.279Z,99460.73
2022-12-23T16:23:55.520Z,99465.31
2022-12-23T16:28:59.409Z,99459.31
2022-12-23T16:34:05.279Z,99458.54
2022-12-23T16:39:20.250Z,99452.83
2022-12-23T16:44:23.076Z,99455.23
2022-12-23T16:49:34.005Z,99460.68
2022-12-23T16:54:37.162Z,99463.14
2022-12-23T16:59:41.261Z,99462.40
2022-12-23T17:04:44.412Z,99469.94
2022-12-23T17:09:47.216Z,99466.94
2022-12-23T17:14:50.067Z,99468.98
2022-12-23T17:19:52.852Z,99473.36
2022-12-23T17:24:55.617Z,99477.65
2022-12-23T17:29:58.354Z,99479.11
2022-12-23T17:35:01.135Z,99480.31
2022-12-23T17:40:04.544Z,99481.75
2022-12-23T17:45:25.458Z,99482.09
2022-12-23T17:50:28.327Z,99481.02
2022-12-23T17:55:34.714Z,99483.27
2022-12-23T18:00:38.586Z,99485.46
2022-12-23T18:05:41.417Z,99488.04
2022-12-23T18:10:44.544Z,99488.49
2022-12-23T18:15:47.782Z,99494.95
2022-12-23T18:20:53.600Z,99499.13
2022-12-23T18:25:56.787Z,99507.23
2022-12-23T18:30:59.618Z,99515.15
2022-12-23T18:36:02.398Z,99510.77
2022-12-23T18:41:05.199Z,99517.45
2022-12-23T18:46:08.493Z,99521.57
2022-12-23T18:51:16.413Z,99528.73
2022-12-23T18:56:21.368Z,99536.05
2022-12-23T19:01:24.451Z,99541.06
2022-12-23T19:06:27.288Z,99543.91
2022-12-23T19:11:30.153Z,99550.21
2022-12-23T19:16:32.940Z,99558.05
2022-12-23T19:21:36.039Z,99559.19
2022-12-23T19:26:38.773Z,99569.36
2022-12-23T19:31:41.724Z,99570.69
2022-12-23T19:36:45.594Z,99580.80
2022-12-23T19:41:51.471Z,99581.26
2022-12-23T19:46:54.376Z,99594.66
2022-12-23T19:51:57.285Z,99595.80
2022-12-23T19:57:00.255Z,99605.13
2022-12-23T20:02:03.110Z,99597.66
2022-12-23T20:07:05.886Z,99602.83
2022-12-23T20:12:10.961Z,99606.56
2022-12-23T20:17:13.724Z,99618.10
2022-12-23T20:22:16.848Z,99622.93
2022-12-23T20:27:25.984Z,99620.13
2022-12-23T20:32:30.606Z,99623.50
2022-12-23T20:37:33.333Z,99625.63
2022-12-23T20:42:36.682Z,99627.47
2022-12-23T20:47:39.667Z,99629.32
2022-12-23T20:52:42.463Z,99627.61
2022-12-23T20:57:45.743Z,99627.94
2022-12-23T21:02:48.568Z,99624.33
2022-12-23T21:07:51.772Z,99619.05
2022-12-23T21:12:54.501Z,99620.27
2022-12-23T21:17:57.209Z,99616.73
2022-12-23T21:22:59.965Z,99619.14
2022-12-23T21:28:02.699Z,99626.20
2022-12-23T21:33:05.459Z,99623.98
2022-12-23T21:38:08.235Z,99623.41
2022-12-23T21:43:11.268Z,99626.89
2022-12-23T21:48:14.337Z,99633.70
2022-12-23T21:53:17.101Z,99635.13
2022-12-23T21:58:20.401Z,99637.11
2022-12-23T22:03:23.651Z,99630.06
2022-12-23T22:08:26.381Z,99632.27
2022-12-23T22:13:29.109Z,99647.42
2022-12-23T22:18:31.936Z,99656.14
2022-12-23T22:23:35.798Z,99655.40
2022-12-23T22:28:39.329Z,99653.00
2022-12-23T22:33:42.110Z,99657.35
2022-12-23T22:38:44.817Z,99653.56
2022-12-23T22:43:47.679Z,99654.89
2022-12-23T22:48:51.290Z,99652.23
2022-12-23T22:53:54.479Z,99655.57
2022-12-23T22:58:57.273Z,99652.68
2022-12-23T23:04:01.204Z,99653.05
2022-12-23T23:09:05.786Z,99652.13
2022-12-23T23:14:08.724Z,99646.48
2022-12-23T23:19:12.380Z,99655.27
2022-12-23T23:24:15.111Z,99659.13
2022-12-23T23:29:17.923Z,99664.22
2022-12-23T23:34:20.655Z,99667.40
2022-12-23T23:39:23.330Z,99657.02
2022-12-23T23:44:26.051Z,99645.46
2022-12-23T23:49:29.730Z,99646.20
2022-12-23T23:54:32.450Z,99655.11
2022-12-23T23:59:37.528Z,99656.40
